sensor_id;sensor_type;location;lat;lon;timestamp;temperature;humidity
78541;SHT31;67835;51.968;5.646;2024-01-06T00:01:54;10.3;65.2
78541;SHT31;67835;51.968;5.646;2024-01-06T00:04:23;10.2;65.3
78541;SHT31;67835;51.968;5.646;2024-01-06T00:06:52;10.2;65.2
78541;SHT31;67835;51.968;5.646;2024-01-06T00:09:22;10.2;65.2
78541;SHT31;67835;51.968;5.646;2024-01-06T00:11:51;10.2;65.3
78541;SHT31;67835;51.968;5.646;2024-01-06T00:14:20;10.1;65.2
78541;SHT31;67835;51.968;5.646;2024-01-06T00:16:51;10.1;65.2
78541;SHT31;67835;51.968;5.646;2024-01-06T00:19:19;10.1;65.5
78541;SHT31;67835;51.968;5.646;2024-01-06T00:21:49;10.1;65.4
78541;SHT31;67835;51.968;5.646;2024-01-06T00:24:18;10.1;65.3
78541;SHT31;67835;51.968;5.646;2024-01-06T00:26:46;10.1;64.9
78541;SHT31;67835;51.968;5.646;2024-01-06T00:29:15;10.1;64.7
78541;SHT31;67835;51.968;5.646;2024-01-06T00:31:43;10.0;64.7
78541;SHT31;67835;51.968;5.646;2024-01-06T00:34:12;10.0;64.8
78541;SHT31;67835;51.968;5.646;2024-01-06T00:36:41;10.0;64.6
78541;SHT31;67835;51.968;5.646;2024-01-06T00:39:09;10.0;64.6
78541;SHT31;67835;51.968;5.646;2024-01-06T00:41:38;9.9;64.8
78541;SHT31;67835;51.968;5.646;2024-01-06T00:44:07;10.0;64.9
78541;SHT31;67835;51.968;5.646;2024-01-06T00:46:35;10.0;64.8
78541;SHT31;67835;51.968;5.646;2024-01-06T00:49:07;10.1;64.3
78541;SHT31;67835;51.968;5.646;2024-01-06T00:51:36;10.1;64.1
78541;SHT31;67835;51.968;5.646;2024-01-06T00:54:06;10.1;64.0
78541;SHT31;67835;51.968;5.646;2024-01-06T00:56:34;10.1;63.9
78541;SHT31;67835;51.968;5.646;2024-01-06T00:59:04;10.2;63.8
78541;SHT31;67835;51.968;5.646;2024-01-06T01:01:32;10.1;63.8
78541;SHT31;67835;51.968;5.646;2024-01-06T01:04:01;10.2;63.8
78541;SHT31;67835;51.968;5.646;2024-01-06T01:06:36;10.2;63.7
78541;SHT31;67835;51.968;5.646;2024-01-06T01:09:07;10.3;63.7
78541;SHT31;67835;51.968;5.646;2024-01-06T01:11:38;10.4;63.4
78541;SHT31;67835;51.968;5.646;2024-01-06T01:14:10;10.4;62.8
78541;SHT31;67835;51.968;5.646;2024-01-06T01:16:39;10.5;62.2
78541;SHT31;67835;51.968;5.646;2024-01-06T01:19:07;10.5;61.8
78541;SHT31;67835;51.968;5.646;2024-01-06T01:21:36;10.6;61.1
78541;SHT31;67835;51.968;5.646;2024-01-06T01:24:05;10.5;61.0
78541;SHT31;67835;51.968;5.646;2024-01-06T01:26:34;10.5;60.9
78541;SHT31;67835;51.968;5.646;2024-01-06T01:29:02;10.4;61.0
78541;SHT31;67835;51.968;5.646;2024-01-06T01:31:30;10.4;61.4
78541;SHT31;67835;51.968;5.646;2024-01-06T01:33:59;10.4;60.8
78541;SHT31;67835;51.968;5.646;2024-01-06T01:36:28;10.3;61.0
78541;SHT31;67835;51.968;5.646;2024-01-06T01:38:56;10.2;61.5
78541;SHT31;67835;51.968;5.646;2024-01-06T01:41:25;10.2;61.9
78541;SHT31;67835;51.968;5.646;2024-01-06T01:43:55;10.2;62.3
78541;SHT31;67835;51.968;5.646;2024-01-06T01:46:28;10.2;62.5
78541;SHT31;67835;51.968;5.646;2024-01-06T01:49:00;10.2;62.3
78541;SHT31;67835;51.968;5.646;2024-01-06T01:51:33;10.2;62.2
78541;SHT31;67835;51.968;5.646;2024-01-06T01:54:06;10.2;62.5
78541;SHT31;67835;51.968;5.646;2024-01-06T01:56:36;10.2;62.7
78541;SHT31;67835;51.968;5.646;2024-01-06T01:59:10;10.2;62.6
78541;SHT31;67835;51.968;5.646;2024-01-06T02:01:41;10.2;62.5
78541;SHT31;67835;51.968;5.646;2024-01-06T02:04:09;10.2;62.4
78541;SHT31;67835;51.968;5.646;2024-01-06T02:06:38;10.2;62.3
78541;SHT31;67835;51.968;5.646;2024-01-06T02:09:07;10.2;62.3
78541;SHT31;67835;51.968;5.646;2024-01-06T02:11:35;10.2;62.7
78541;SHT31;67835;51.968;5.646;2024-01-06T02:14:04;10.2;62.8
78541;SHT31;67835;51.968;5.646;2024-01-06T02:16:34;10.2;62.6
78541;SHT31;67835;51.968;5.646;2024-01-06T02:19:02;10.2;62.2
78541;SHT31;67835;51.968;5.646;2024-01-06T02:21:33;10.1;62.1
78541;SHT31;67835;51.968;5.646;2024-01-06T02:24:03;10.1;62.0
78541;SHT31;67835;51.968;5.646;2024-01-06T02:26:31;10.0;62.2
78541;SHT31;67835;51.968;5.646;2024-01-06T02:29:00;9.9;62.3
78541;SHT31;67835;51.968;5.646;2024-01-06T02:31:28;9.8;62.4
78541;SHT31;67835;51.968;5.646;2024-01-06T02:33:57;9.8;62.7
78541;SHT31;67835;51.968;5.646;2024-01-06T02:36:26;9.7;62.9
78541;SHT31;67835;51.968;5.646;2024-01-06T02:38:55;9.7;63.1
78541;SHT31;67835;51.968;5.646;2024-01-06T02:41:24;9.6;63.3
78541;SHT31;67835;51.968;5.646;2024-01-06T02:43:54;9.6;63.3
78541;SHT31;67835;51.968;5.646;2024-01-06T02:46:24;9.6;63.5
78541;SHT31;67835;51.968;5.646;2024-01-06T02:48:53;9.6;63.6
78541;SHT31;67835;51.968;5.646;2024-01-06T02:51:21;9.7;63.3
78541;SHT31;67835;51.968;5.646;2024-01-06T02:53:49;9.7;63.0
78541;SHT31;67835;51.968;5.646;2024-01-06T02:56:18;9.7;63.0
78541;SHT31;67835;51.968;5.646;2024-01-06T02:58:46;9.7;62.6
78541;SHT31;67835;51.968;5.646;2024-01-06T03:01:17;9.6;62.7
78541;SHT31;67835;51.968;5.646;2024-01-06T03:03:46;9.6;62.5
78541;SHT31;67835;51.968;5.646;2024-01-06T03:06:14;9.6;62.3
78541;SHT31;67835;51.968;5.646;2024-01-06T03:08:42;9.5;62.8
78541;SHT31;67835;51.968;5.646;2024-01-06T03:11:11;9.4;62.9
78541;SHT31;67835;51.968;5.646;2024-01-06T03:13:39;9.4;63.3
78541;SHT31;67835;51.968;5.646;2024-01-06T03:16:08;9.3;63.3
78541;SHT31;67835;51.968;5.646;2024-01-06T03:18:36;9.3;63.7
78541;SHT31;67835;51.968;5.646;2024-01-06T03:21:05;9.2;63.9
78541;SHT31;67835;51.968;5.646;2024-01-06T03:23:33;9.2;64.2
78541;SHT31;67835;51.968;5.646;2024-01-06T03:26:07;9.1;64.3
78541;SHT31;67835;51.968;5.646;2024-01-06T03:28:35;9.1;64.7
78541;SHT31;67835;51.968;5.646;2024-01-06T03:31:04;9.0;65.0
78541;SHT31;67835;51.968;5.646;2024-01-06T03:33:32;9.0;65.1
78541;SHT31;67835;51.968;5.646;2024-01-06T03:36:06;9.0;65.0
78541;SHT31;67835;51.968;5.646;2024-01-06T03:38:35;9.0;65.0
78541;SHT31;67835;51.968;5.646;2024-01-06T03:41:03;8.9;65.1
78541;SHT31;67835;51.968;5.646;2024-01-06T03:43:31;8.9;65.4
78541;SHT31;67835;51.968;5.646;2024-01-06T03:46:00;8.9;65.4
78541;SHT31;67835;51.968;5.646;2024-01-06T03:48:29;8.9;65.8
78541;SHT31;67835;51.968;5.646;2024-01-06T03:50:59;8.9;65.8
78541;SHT31;67835;51.968;5.646;2024-01-06T03:53:28;8.8;65.6
78541;SHT31;67835;51.968;5.646;2024-01-06T03:55:58;8.8;65.7
78541;SHT31;67835;51.968;5.646;2024-01-06T03:58:27;8.8;66.0
78541;SHT31;67835;51.968;5.646;2024-01-06T04:00:55;8.8;66.1
78541;SHT31;67835;51.968;5.646;2024-01-06T04:03:24;8.8;65.9
78541;SHT31;67835;51.968;5.646;2024-01-06T04:05:54;8.7;66.1
78541;SHT31;67835;51.968;5.646;2024-01-06T04:08:22;8.7;66.6
78541;SHT31;67835;51.968;5.646;2024-01-06T04:10:51;8.7;66.5
78541;SHT31;67835;51.968;5.646;2024-01-06T04:13:22;8.7;66.7
78541;SHT31;67835;51.968;5.646;2024-01-06T04:15:51;8.7;66.9
78541;SHT31;67835;51.968;5.646;2024-01-06T04:18:22;8.7;66.7
78541;SHT31;67835;51.968;5.646;2024-01-06T04:20:50;8.7;66.2
78541;SHT31;67835;51.968;5.646;2024-01-06T04:23:18;8.7;66.1
78541;SHT31;67835;51.968;5.646;2024-01-06T04:25:47;8.7;66.1
78541;SHT31;67835;51.968;5.646;2024-01-06T04:28:16;8.7;66.1
78541;SHT31;67835;51.968;5.646;2024-01-06T04:30:44;8.6;66.0
78541;SHT31;67835;51.968;5.646;2024-01-06T04:33:13;8.6;66.2
78541;SHT31;67835;51.968;5.646;2024-01-06T04:35:41;8.6;66.2
78541;SHT31;67835;51.968;5.646;2024-01-06T04:38:10;8.6;65.8
78541;SHT31;67835;51.968;5.646;2024-01-06T04:40:38;8.6;65.8
78541;SHT31;67835;51.968;5.646;2024-01-06T04:43:07;8.6;65.5
78541;SHT31;67835;51.968;5.646;2024-01-06T04:45:35;8.6;65.3
78541;SHT31;67835;51.968;5.646;2024-01-06T04:48:06;8.6;65.3
78541;SHT31;67835;51.968;5.646;2024-01-06T04:50:34;8.6;64.9
78541;SHT31;67835;51.968;5.646;2024-01-06T04:53:03;8.6;65.2
78541;SHT31;67835;51.968;5.646;2024-01-06T04:55:32;8.5;65.7
78541;SHT31;67835;51.968;5.646;2024-01-06T04:58:00;8.5;65.4
78541;SHT31;67835;51.968;5.646;2024-01-06T05:00:28;8.6;65.5
78541;SHT31;67835;51.968;5.646;2024-01-06T05:02:57;8.6;65.5
78541;SHT31;67835;51.968;5.646;2024-01-06T05:05:25;8.5;65.5
78541;SHT31;67835;51.968;5.646;2024-01-06T05:07:54;8.5;65.8
78541;SHT31;67835;51.968;5.646;2024-01-06T05:10:22;8.5;65.9
78541;SHT31;67835;51.968;5.646;2024-01-06T05:12:51;8.5;65.7
78541;SHT31;67835;51.968;5.646;2024-01-06T05:15:19;8.5;65.7
78541;SHT31;67835;51.968;5.646;2024-01-06T05:17:48;8.5;65.6
78541;SHT31;67835;51.968;5.646;2024-01-06T05:20:16;8.5;65.3
78541;SHT31;67835;51.968;5.646;2024-01-06T05:22:45;8.4;65.3
78541;SHT31;67835;51.968;5.646;2024-01-06T05:25:13;8.4;65.6
78541;SHT31;67835;51.968;5.646;2024-01-06T05:27:42;8.4;65.5
78541;SHT31;67835;51.968;5.646;2024-01-06T05:30:11;8.4;65.3
78541;SHT31;67835;51.968;5.646;2024-01-06T05:32:40;8.4;64.8
78541;SHT31;67835;51.968;5.646;2024-01-06T05:35:09;8.3;64.5
78541;SHT31;67835;51.968;5.646;2024-01-06T05:37:38;8.3;64.4
78541;SHT31;67835;51.968;5.646;2024-01-06T05:40:07;8.3;64.6
78541;SHT31;67835;51.968;5.646;2024-01-06T05:42:39;8.2;64.7
78541;SHT31;67835;51.968;5.646;2024-01-06T05:45:10;8.2;64.9
78541;SHT31;67835;51.968;5.646;2024-01-06T05:47:39;8.2;65.2
78541;SHT31;67835;51.968;5.646;2024-01-06T05:50:10;8.1;65.0
78541;SHT31;67835;51.968;5.646;2024-01-06T05:52:39;8.1;65.3
78541;SHT31;67835;51.968;5.646;2024-01-06T05:55:10;8.1;64.6
78541;SHT31;67835;51.968;5.646;2024-01-06T05:57:39;8.1;64.5
78541;SHT31;67835;51.968;5.646;2024-01-06T06:00:10;8.0;64.1
78541;SHT31;67835;51.968;5.646;2024-01-06T06:02:40;8.0;63.9
78541;SHT31;67835;51.968;5.646;2024-01-06T06:05:09;8.0;64.0
78541;SHT31;67835;51.968;5.646;2024-01-06T06:07:37;7.9;64.2
78541;SHT31;67835;51.968;5.646;2024-01-06T06:10:09;7.9;64.2
78541;SHT31;67835;51.968;5.646;2024-01-06T06:12:38;7.9;64.1
78541;SHT31;67835;51.968;5.646;2024-01-06T06:15:08;7.9;64.4
78541;SHT31;67835;51.968;5.646;2024-01-06T06:17:36;7.9;64.3
78541;SHT31;67835;51.968;5.646;2024-01-06T06:20:08;7.8;64.1
78541;SHT31;67835;51.968;5.646;2024-01-06T06:22:37;7.8;64.3
78541;SHT31;67835;51.968;5.646;2024-01-06T06:25:07;7.8;64.3
78541;SHT31;67835;51.968;5.646;2024-01-06T06:27:38;7.8;64.3
78541;SHT31;67835;51.968;5.646;2024-01-06T06:30:12;7.8;64.5
78541;SHT31;67835;51.968;5.646;2024-01-06T06:32:41;7.8;64.1
78541;SHT31;67835;51.968;5.646;2024-01-06T06:35:09;7.8;63.9
78541;SHT31;67835;51.968;5.646;2024-01-06T06:37:38;7.8;63.8
78541;SHT31;67835;51.968;5.646;2024-01-06T06:40:08;7.8;64.0
78541;SHT31;67835;51.968;5.646;2024-01-06T06:42:37;7.8;63.8
78541;SHT31;67835;51.968;5.646;2024-01-06T06:45:09;7.8;63.9
78541;SHT31;67835;51.968;5.646;2024-01-06T06:47:39;7.7;63.5
78541;SHT31;67835;51.968;5.646;2024-01-06T06:50:10;7.7;63.9
78541;SHT31;67835;51.968;5.646;2024-01-06T06:52:38;7.7;63.8
78541;SHT31;67835;51.968;5.646;2024-01-06T06:55:09;7.7;63.8
78541;SHT31;67835;51.968;5.646;2024-01-06T06:57:38;7.7;63.5
78541;SHT31;67835;51.968;5.646;2024-01-06T07:00:08;7.7;63.8
78541;SHT31;67835;51.968;5.646;2024-01-06T07:02:37;7.7;63.9
78541;SHT31;67835;51.968;5.646;2024-01-06T07:05:06;7.7;63.9
78541;SHT31;67835;51.968;5.646;2024-01-06T07:07:38;7.7;64.1
78541;SHT31;67835;51.968;5.646;2024-01-06T07:10:08;7.7;64.5
78541;SHT31;67835;51.968;5.646;2024-01-06T07:12:37;7.7;64.1
78541;SHT31;67835;51.968;5.646;2024-01-06T07:15:07;7.7;64.3
78541;SHT31;67835;51.968;5.646;2024-01-06T07:17:37;7.7;64.2
78541;SHT31;67835;51.968;5.646;2024-01-06T07:20:11;7.8;64.3
78541;SHT31;67835;51.968;5.646;2024-01-06T07:22:40;7.9;63.6
78541;SHT31;67835;51.968;5.646;2024-01-06T07:25:09;8.0;63.6
78541;SHT31;67835;51.968;5.646;2024-01-06T07:27:38;8.1;63.1
78541;SHT31;67835;51.968;5.646;2024-01-06T07:30:14;8.2;62.7
78541;SHT31;67835;51.968;5.646;2024-01-06T07:32:47;8.3;62.4
78541;SHT31;67835;51.968;5.646;2024-01-06T07:35:17;8.4;61.7
78541;SHT31;67835;51.968;5.646;2024-01-06T07:37:45;8.5;61.5
78541;SHT31;67835;51.968;5.646;2024-01-06T07:40:16;8.5;61.0
78541;SHT31;67835;51.968;5.646;2024-01-06T07:42:44;8.5;61.0
78541;SHT31;67835;51.968;5.646;2024-01-06T07:45:15;8.6;60.8
78541;SHT31;67835;51.968;5.646;2024-01-06T07:47:43;8.6;60.6
78541;SHT31;67835;51.968;5.646;2024-01-06T07:50:12;8.5;60.7
78541;SHT31;67835;51.968;5.646;2024-01-06T07:52:41;8.5;60.9
78541;SHT31;67835;51.968;5.646;2024-01-06T07:55:10;8.5;61.1
78541;SHT31;67835;51.968;5.646;2024-01-06T07:57:38;8.4;61.5
78541;SHT31;67835;51.968;5.646;2024-01-06T08:00:11;8.4;61.2
78541;SHT31;67835;51.968;5.646;2024-01-06T08:02:41;8.4;61.8
78541;SHT31;67835;51.968;5.646;2024-01-06T08:05:11;8.4;61.5
78541;SHT31;67835;51.968;5.646;2024-01-06T08:07:39;8.3;61.9
78541;SHT31;67835;51.968;5.646;2024-01-06T08:10:09;8.3;62.1
78541;SHT31;67835;51.968;5.646;2024-01-06T08:12:38;8.3;61.9
78541;SHT31;67835;51.968;5.646;2024-01-06T08:15:08;8.2;62.2
78541;SHT31;67835;51.968;5.646;2024-01-06T08:17:36;8.2;62.7
78541;SHT31;67835;51.968;5.646;2024-01-06T08:20:08;8.2;62.9
78541;SHT31;67835;51.968;5.646;2024-01-06T08:22:37;8.1;62.5
78541;SHT31;67835;51.968;5.646;2024-01-06T08:25:06;8.1;62.4
78541;SHT31;67835;51.968;5.646;2024-01-06T08:27:35;8.1;62.1
78541;SHT31;67835;51.968;5.646;2024-01-06T08:30:08;8.1;62.4
78541;SHT31;67835;51.968;5.646;2024-01-06T08:32:39;8.2;62.1
78541;SHT31;67835;51.968;5.646;2024-01-06T08:35:09;8.2;62.0
78541;SHT31;67835;51.968;5.646;2024-01-06T08:37:38;8.3;61.7
78541;SHT31;67835;51.968;5.646;2024-01-06T08:40:12;8.3;61.7
78541;SHT31;67835;51.968;5.646;2024-01-06T08:42:40;8.3;61.3
78541;SHT31;67835;51.968;5.646;2024-01-06T08:45:11;8.4;61.2
78541;SHT31;67835;51.968;5.646;2024-01-06T08:47:40;8.4;61.6
78541;SHT31;67835;51.968;5.646;2024-01-06T08:50:09;8.4;62.2
78541;SHT31;67835;51.968;5.646;2024-01-06T08:52:40;8.4;61.7
78541;SHT31;67835;51.968;5.646;2024-01-06T08:55:10;8.5;61.6
78541;SHT31;67835;51.968;5.646;2024-01-06T08:57:39;8.5;61.0
78541;SHT31;67835;51.968;5.646;2024-01-06T09:00:10;8.6;60.5
78541;SHT31;67835;51.968;5.646;2024-01-06T09:02:39;8.6;60.7
78541;SHT31;67835;51.968;5.646;2024-01-06T09:05:09;8.6;60.5
78541;SHT31;67835;51.968;5.646;2024-01-06T09:07:38;8.6;60.2
78541;SHT31;67835;51.968;5.646;2024-01-06T09:10:09;8.6;60.2
78541;SHT31;67835;51.968;5.646;2024-01-06T09:12:38;8.6;59.7
78541;SHT31;67835;51.968;5.646;2024-01-06T09:15:09;8.6;60.0
78541;SHT31;67835;51.968;5.646;2024-01-06T09:17:37;8.6;59.6
78541;SHT31;67835;51.968;5.646;2024-01-06T09:20:08;8.6;59.7
78541;SHT31;67835;51.968;5.646;2024-01-06T09:22:36;8.6;59.8
78541;SHT31;67835;51.968;5.646;2024-01-06T09:25:06;8.5;59.5
78541;SHT31;67835;51.968;5.646;2024-01-06T09:27:35;8.5;59.7
78541;SHT31;67835;51.968;5.646;2024-01-06T09:30:04;8.5;59.6
78541;SHT31;67835;51.968;5.646;2024-01-06T09:32:35;8.5;59.9
78541;SHT31;67835;51.968;5.646;2024-01-06T09:35:05;8.4;60.6
78541;SHT31;67835;51.968;5.646;2024-01-06T09:37:35;8.5;60.7
78541;SHT31;67835;51.968;5.646;2024-01-06T09:40:04;8.5;59.9
78541;SHT31;67835;51.968;5.646;2024-01-06T09:42:33;8.5;59.7
78541;SHT31;67835;51.968;5.646;2024-01-06T09:45:01;8.5;59.9
78541;SHT31;67835;51.968;5.646;2024-01-06T09:47:34;8.5;59.6
78541;SHT31;67835;51.968;5.646;2024-01-06T09:50:09;8.5;60.0
78541;SHT31;67835;51.968;5.646;2024-01-06T09:52:40;8.5;59.6
78541;SHT31;67835;51.968;5.646;2024-01-06T09:55:11;8.5;59.1
78541;SHT31;67835;51.968;5.646;2024-01-06T09:57:46;8.5;59.5
78541;SHT31;67835;51.968;5.646;2024-01-06T10:00:20;8.6;59.4
78541;SHT31;67835;51.968;5.646;2024-01-06T10:02:51;8.6;59.4
78541;SHT31;67835;51.968;5.646;2024-01-06T10:05:22;8.6;59.2
78541;SHT31;67835;51.968;5.646;2024-01-06T10:07:51;8.6;59.1
78541;SHT31;67835;51.968;5.646;2024-01-06T10:10:24;8.7;59.1
78541;SHT31;67835;51.968;5.646;2024-01-06T10:12:54;8.7;59.0
78541;SHT31;67835;51.968;5.646;2024-01-06T10:15:23;8.7;59.3
78541;SHT31;67835;51.968;5.646;2024-01-06T10:17:54;8.8;59.4
78541;SHT31;67835;51.968;5.646;2024-01-06T10:20:28;8.8;59.1
78541;SHT31;67835;51.968;5.646;2024-01-06T10:23:06;8.9;59.0
78541;SHT31;67835;51.968;5.646;2024-01-06T10:25:38;8.9;58.3
78541;SHT31;67835;51.968;5.646;2024-01-06T10:28:12;9.0;58.1
78541;SHT31;67835;51.968;5.646;2024-01-06T10:30:43;9.0;58.0
78541;SHT31;67835;51.968;5.646;2024-01-06T10:33:12;9.0;58.0
78541;SHT31;67835;51.968;5.646;2024-01-06T10:35:45;9.1;57.9
78541;SHT31;67835;51.968;5.646;2024-01-06T10:38:20;9.1;57.4
78541;SHT31;67835;51.968;5.646;2024-01-06T10:41:03;9.1;57.4
78541;SHT31;67835;51.968;5.646;2024-01-06T10:43:43;9.2;57.0
78541;SHT31;67835;51.968;5.646;2024-01-06T10:46:17;9.3;56.8
78541;SHT31;67835;51.968;5.646;2024-01-06T10:48:49;9.3;56.5
78541;SHT31;67835;51.968;5.646;2024-01-06T10:51:21;9.3;56.1
78541;SHT31;67835;51.968;5.646;2024-01-06T10:53:59;9.3;56.3
78541;SHT31;67835;51.968;5.646;2024-01-06T10:56:29;9.3;57.0
78541;SHT31;67835;51.968;5.646;2024-01-06T10:59:01;9.3;56.2
78541;SHT31;67835;51.968;5.646;2024-01-06T11:01:34;9.3;56.2
78541;SHT31;67835;51.968;5.646;2024-01-06T11:04:05;9.3;56.3
78541;SHT31;67835;51.968;5.646;2024-01-06T11:06:37;9.3;56.3
78541;SHT31;67835;51.968;5.646;2024-01-06T11:09:13;9.4;55.9
78541;SHT31;67835;51.968;5.646;2024-01-06T11:11:45;9.4;56.4
78541;SHT31;67835;51.968;5.646;2024-01-06T11:14:24;9.4;56.5
78541;SHT31;67835;51.968;5.646;2024-01-06T11:16:55;9.4;55.6
78541;SHT31;67835;51.968;5.646;2024-01-06T11:19:44;9.5;55.6
78541;SHT31;67835;51.968;5.646;2024-01-06T11:22:24;9.4;55.2
78541;SHT31;67835;51.968;5.646;2024-01-06T11:25:06;9.4;55.6
78541;SHT31;67835;51.968;5.646;2024-01-06T11:27:37;9.4;56.3
78541;SHT31;67835;51.968;5.646;2024-01-06T11:30:18;9.4;55.7
78541;SHT31;67835;51.968;5.646;2024-01-06T11:32:45;9.4;56.2
78541;SHT31;67835;51.968;5.646;2024-01-06T11:35:15;9.4;56.9
78541;SHT31;67835;51.968;5.646;2024-01-06T11:37:55;9.4;56.0
78541;SHT31;67835;51.968;5.646;2024-01-06T11:40:33;9.4;56.1
78541;SHT31;67835;51.968;5.646;2024-01-06T11:43:04;9.4;56.0
78541;SHT31;67835;51.968;5.646;2024-01-06T11:45:34;9.3;56.2
78541;SHT31;67835;51.968;5.646;2024-01-06T11:48:04;9.3;57.1
78541;SHT31;67835;51.968;5.646;2024-01-06T11:50:36;9.2;56.8
78541;SHT31;67835;51.968;5.646;2024-01-06T11:53:07;9.2;57.2
78541;SHT31;67835;51.968;5.646;2024-01-06T11:55:39;9.1;57.3
78541;SHT31;67835;51.968;5.646;2024-01-06T11:58:09;9.1;57.7
78541;SHT31;67835;51.968;5.646;2024-01-06T12:00:41;9.2;57.4
78541;SHT31;67835;51.968;5.646;2024-01-06T12:03:16;9.2;57.5
78541;SHT31;67835;51.968;5.646;2024-01-06T12:05:44;9.2;57.2
78541;SHT31;67835;51.968;5.646;2024-01-06T12:08:13;9.2;56.4
78541;SHT31;67835;51.968;5.646;2024-01-06T12:10:42;9.2;57.1
78541;SHT31;67835;51.968;5.646;2024-01-06T12:13:12;9.2;57.5
78541;SHT31;67835;51.968;5.646;2024-01-06T12:15:43;9.2;56.8
78541;SHT31;67835;51.968;5.646;2024-01-06T12:18:12;9.2;57.8
78541;SHT31;67835;51.968;5.646;2024-01-06T12:20:42;9.3;57.6
78541;SHT31;67835;51.968;5.646;2024-01-06T12:23:11;9.3;57.4
78541;SHT31;67835;51.968;5.646;2024-01-06T12:25:43;9.3;57.6
78541;SHT31;67835;51.968;5.646;2024-01-06T12:28:17;9.4;56.9
78541;SHT31;67835;51.968;5.646;2024-01-06T12:30:46;9.4;56.7
78541;SHT31;67835;51.968;5.646;2024-01-06T12:33:15;9.4;56.2
78541;SHT31;67835;51.968;5.646;2024-01-06T12:35:45;9.3;56.3
78541;SHT31;67835;51.968;5.646;2024-01-06T12:38:15;9.3;56.9
78541;SHT31;67835;51.968;5.646;2024-01-06T12:40:48;9.2;57.0
78541;SHT31;67835;51.968;5.646;2024-01-06T12:43:17;9.2;57.7
78541;SHT31;67835;51.968;5.646;2024-01-06T12:45:46;9.2;57.8
78541;SHT31;67835;51.968;5.646;2024-01-06T12:48:15;9.2;57.8
78541;SHT31;67835;51.968;5.646;2024-01-06T12:50:44;9.2;57.2
78541;SHT31;67835;51.968;5.646;2024-01-06T12:53:12;9.2;57.2
78541;SHT31;67835;51.968;5.646;2024-01-06T12:55:42;9.2;56.8
78541;SHT31;67835;51.968;5.646;2024-01-06T12:58:10;9.3;56.9
78541;SHT31;67835;51.968;5.646;2024-01-06T13:00:39;9.3;57.1
78541;SHT31;67835;51.968;5.646;2024-01-06T13:03:10;9.3;57.3
78541;SHT31;67835;51.968;5.646;2024-01-06T13:05:41;9.3;56.9
78541;SHT31;67835;51.968;5.646;2024-01-06T13:08:10;9.3;56.5
78541;SHT31;67835;51.968;5.646;2024-01-06T13:10:39;9.3;56.2
78541;SHT31;67835;51.968;5.646;2024-01-06T13:13:08;9.2;56.6
78541;SHT31;67835;51.968;5.646;2024-01-06T13:15:36;9.2;56.7
78541;SHT31;67835;51.968;5.646;2024-01-06T13:18:06;9.2;56.0
78541;SHT31;67835;51.968;5.646;2024-01-06T13:20:34;9.2;56.1
78541;SHT31;67835;51.968;5.646;2024-01-06T13:23:04;9.2;56.0
78541;SHT31;67835;51.968;5.646;2024-01-06T13:25:34;9.1;56.2
78541;SHT31;67835;51.968;5.646;2024-01-06T13:28:07;9.1;56.2
78541;SHT31;67835;51.968;5.646;2024-01-06T13:30:35;9.1;56.1
78541;SHT31;67835;51.968;5.646;2024-01-06T13:33:06;9.1;56.4
78541;SHT31;67835;51.968;5.646;2024-01-06T13:35:38;9.0;56.4
78541;SHT31;67835;51.968;5.646;2024-01-06T13:38:08;9.0;57.2
78541;SHT31;67835;51.968;5.646;2024-01-06T13:40:38;8.9;56.8
78541;SHT31;67835;51.968;5.646;2024-01-06T13:43:08;8.9;56.7
78541;SHT31;67835;51.968;5.646;2024-01-06T13:45:42;8.8;56.9
78541;SHT31;67835;51.968;5.646;2024-01-06T13:48:10;8.7;56.9
78541;SHT31;67835;51.968;5.646;2024-01-06T13:50:44;8.6;57.9
78541;SHT31;67835;51.968;5.646;2024-01-06T13:53:13;8.6;58.4
78541;SHT31;67835;51.968;5.646;2024-01-06T13:55:44;8.6;58.1
78541;SHT31;67835;51.968;5.646;2024-01-06T13:58:13;8.6;58.0
78541;SHT31;67835;51.968;5.646;2024-01-06T14:00:42;8.5;58.3
78541;SHT31;67835;51.968;5.646;2024-01-06T14:03:11;8.5;58.5
78541;SHT31;67835;51.968;5.646;2024-01-06T14:05:40;8.4;58.6
78541;SHT31;67835;51.968;5.646;2024-01-06T14:08:09;8.3;58.7
78541;SHT31;67835;51.968;5.646;2024-01-06T14:10:37;8.3;59.2
78541;SHT31;67835;51.968;5.646;2024-01-06T14:13:06;8.2;59.5
78541;SHT31;67835;51.968;5.646;2024-01-06T14:15:34;8.2;59.8
78541;SHT31;67835;51.968;5.646;2024-01-06T14:18:04;8.2;59.8
78541;SHT31;67835;51.968;5.646;2024-01-06T14:20:32;8.2;60.2
78541;SHT31;67835;51.968;5.646;2024-01-06T14:23:04;8.1;60.3
78541;SHT31;67835;51.968;5.646;2024-01-06T14:25:32;8.1;60.0
78541;SHT31;67835;51.968;5.646;2024-01-06T14:28:01;8.1;60.2
78541;SHT31;67835;51.968;5.646;2024-01-06T14:30:32;8.1;60.2
78541;SHT31;67835;51.968;5.646;2024-01-06T14:33:00;8.2;60.6
78541;SHT31;67835;51.968;5.646;2024-01-06T14:35:30;8.2;60.5
78541;SHT31;67835;51.968;5.646;2024-01-06T14:38:03;8.3;59.9
78541;SHT31;67835;51.968;5.646;2024-01-06T14:40:33;8.4;59.2
78541;SHT31;67835;51.968;5.646;2024-01-06T14:43:01;8.4;59.2
78541;SHT31;67835;51.968;5.646;2024-01-06T14:45:31;8.4;58.7
78541;SHT31;67835;51.968;5.646;2024-01-06T14:47:59;8.3;58.5
78541;SHT31;67835;51.968;5.646;2024-01-06T14:50:28;8.3;59.4
78541;SHT31;67835;51.968;5.646;2024-01-06T14:52:59;8.3;59.3
78541;SHT31;67835;51.968;5.646;2024-01-06T14:55:27;8.2;59.4
78541;SHT31;67835;51.968;5.646;2024-01-06T14:57:56;8.2;59.1
78541;SHT31;67835;51.968;5.646;2024-01-06T15:00:24;8.1;59.5
78541;SHT31;67835;51.968;5.646;2024-01-06T15:02:53;8.1;59.5
78541;SHT31;67835;51.968;5.646;2024-01-06T15:05:21;8.0;59.7
78541;SHT31;67835;51.968;5.646;2024-01-06T15:07:55;8.0;59.8
78541;SHT31;67835;51.968;5.646;2024-01-06T15:10:26;7.9;59.8
78541;SHT31;67835;51.968;5.646;2024-01-06T15:12:56;7.9;60.1
78541;SHT31;67835;51.968;5.646;2024-01-06T15:15:24;7.9;60.0
78541;SHT31;67835;51.968;5.646;2024-01-06T15:17:54;7.8;60.1
78541;SHT31;67835;51.968;5.646;2024-01-06T15:20:23;7.8;60.2
78541;SHT31;67835;51.968;5.646;2024-01-06T15:22:54;7.8;60.7
78541;SHT31;67835;51.968;5.646;2024-01-06T15:25:22;7.8;60.7
78541;SHT31;67835;51.968;5.646;2024-01-06T15:27:50;7.8;60.7
78541;SHT31;67835;51.968;5.646;2024-01-06T15:30:19;7.8;60.7
78541;SHT31;67835;51.968;5.646;2024-01-06T15:32:49;7.8;60.5
78541;SHT31;67835;51.968;5.646;2024-01-06T15:35:18;7.8;60.8
78541;SHT31;67835;51.968;5.646;2024-01-06T15:37:48;7.7;60.8
78541;SHT31;67835;51.968;5.646;2024-01-06T15:40:17;7.7;60.7
78541;SHT31;67835;51.968;5.646;2024-01-06T15:42:46;7.7;60.8
78541;SHT31;67835;51.968;5.646;2024-01-06T15:45:15;7.7;60.4
78541;SHT31;67835;51.968;5.646;2024-01-06T15:47:44;7.7;60.9
78541;SHT31;67835;51.968;5.646;2024-01-06T15:50:12;7.7;61.2
78541;SHT31;67835;51.968;5.646;2024-01-06T15:52:41;7.6;60.7
78541;SHT31;67835;51.968;5.646;2024-01-06T15:55:12;7.6;60.8
78541;SHT31;67835;51.968;5.646;2024-01-06T15:57:42;7.6;60.7
78541;SHT31;67835;51.968;5.646;2024-01-06T16:00:12;7.6;60.9
78541;SHT31;67835;51.968;5.646;2024-01-06T16:02:43;7.6;60.4
78541;SHT31;67835;51.968;5.646;2024-01-06T16:05:11;7.6;60.5
78541;SHT31;67835;51.968;5.646;2024-01-06T16:07:40;7.6;60.4
78541;SHT31;67835;51.968;5.646;2024-01-06T16:10:09;7.5;60.8
78541;SHT31;67835;51.968;5.646;2024-01-06T16:12:40;7.5;60.8
78541;SHT31;67835;51.968;5.646;2024-01-06T16:15:10;7.5;60.9
78541;SHT31;67835;51.968;5.646;2024-01-06T16:17:39;7.5;60.9
78541;SHT31;67835;51.968;5.646;2024-01-06T16:20:10;7.5;60.5
78541;SHT31;67835;51.968;5.646;2024-01-06T16:22:39;7.5;61.0
78541;SHT31;67835;51.968;5.646;2024-01-06T16:25:08;7.4;60.9
78541;SHT31;67835;51.968;5.646;2024-01-06T16:27:38;7.4;60.8
78541;SHT31;67835;51.968;5.646;2024-01-06T16:30:08;7.4;60.9
78541;SHT31;67835;51.968;5.646;2024-01-06T16:32:37;7.4;60.8